createdAt,value
2019-02-24T00:02:55.984Z,99.90
2019-02-24T00:07:41.954Z,99.90
2019-02-24T00:12:28.521Z,99.90
2019-02-24T00:17:14.466Z,99.90
2019-02-24T00:22:00.131Z,99.90
2019-02-24T00:26:45.995Z,99.90
2019-02-24T00:31:31.782Z,99.90
2019-02-24T00:36:17.648Z,99.90
2019-02-24T00:41:03.429Z,99.90
2019-02-24T00:45:49.236Z,99.90
2019-02-24T00:50:34.960Z,99.90
2019-02-24T00:55:23.746Z,99.90
2019-02-24T01:00:10.448Z,99.90
2019-02-24T01:04:56.207Z,99.90
2019-02-24T01:09:41.959Z,99.90
2019-02-24T01:14:27.720Z,99.90
2019-02-24T01:19:13.550Z,99.90
2019-02-24T01:23:59.369Z,99.90
2019-02-24T01:28:45.184Z,99.90
2019-02-24T01:33:31.069Z,99.90
2019-02-24T01:38:16.962Z,99.90
2019-02-24T01:43:02.696Z,99.90
2019-02-24T01:47:48.413Z,99.90
2019-02-24T01:52:34.232Z,99.90
2019-02-24T01:57:20.016Z,99.90
2019-02-24T02:02:05.858Z,99.90
2019-02-24T02:06:51.740Z,99.90
2019-02-24T02:11:37.479Z,99.90
2019-02-24T02:16:23.350Z,99.90
2019-02-24T02:21:09.032Z,99.90
2019-02-24T02:25:54.851Z,99.90
2019-02-24T02:30:40.568Z,99.90
2019-02-24T02:35:26.382Z,99.90
2019-02-24T02:40:12.231Z,99.90
2019-02-24T02:44:57.937Z,99.90
2019-02-24T02:49:43.667Z,99.90
2019-02-24T02:54:29.568Z,99.90
2019-02-24T02:59:15.298Z,99.90
2019-02-24T03:04:01.080Z,99.90
2019-02-24T03:08:50.684Z,99.90
2019-02-24T03:13:36.457Z,99.90
2019-02-24T03:18:22.209Z,99.90
2019-02-24T03:23:07.977Z,99.90
2019-02-24T03:27:53.662Z,99.90
2019-02-24T03:32:39.426Z,99.90
2019-02-24T03:37:25.238Z,99.90
2019-02-24T03:42:10.962Z,99.90
2019-02-24T03:46:56.763Z,99.90
2019-02-24T03:51:42.438Z,99.90
2019-02-24T03:56:28.956Z,99.90
2019-02-24T04:01:14.742Z,99.90
2019-02-24T04:06:00.532Z,99.90
2019-02-24T04:10:46.242Z,99.90
2019-02-24T04:15:32.015Z,99.90
2019-02-24T04:20:17.743Z,99.90
2019-02-24T04:25:03.471Z,99.90
2019-02-24T04:29:49.154Z,99.90
2019-02-24T04:34:34.975Z,99.90
2019-02-24T04:39:20.732Z,99.90
2019-02-24T04:44:06.445Z,99.90
2019-02-24T04:48:52.186Z,99.90
2019-02-24T04:53:37.855Z,99.90
2019-02-24T04:58:23.601Z,99.90
2019-02-24T05:03:09.373Z,99.90
2019-02-24T05:07:55.145Z,99.90
2019-02-24T05:12:40.814Z,99.90
2019-02-24T05:17:26.524Z,99.90
2019-02-24T05:22:12.255Z,99.90
2019-02-24T05:26:58.054Z,99.90
2019-02-24T05:31:43.746Z,99.90
2019-02-24T05:36:31.342Z,99.90
2019-02-24T05:41:17.225Z,99.90
2019-02-24T05:46:03.033Z,99.90
2019-02-24T05:50:48.851Z,99.90
2019-02-24T05:55:34.586Z,99.90
2019-02-24T06:00:20.343Z,99.90
2019-02-24T06:05:06.252Z,99.90
2019-02-24T06:09:52.032Z,99.90
2019-02-24T06:14:37.794Z,99.90
2019-02-24T06:19:42.758Z,99.90
2019-02-24T06:24:28.496Z,99.90
2019-02-24T06:29:14.257Z,99.90
2019-02-24T06:34:00.041Z,99.90
2019-02-24T06:38:45.791Z,99.90
2019-02-24T06:43:31.979Z,99.90
2019-02-24T06:48:17.958Z,99.90
2019-02-24T06:53:04.079Z,99.90
2019-02-24T06:57:49.880Z,99.90
2019-02-24T07:02:36.071Z,99.90
2019-02-24T07:07:22.060Z,99.90
2019-02-24T07:12:07.865Z,99.90
2019-02-24T07:16:53.699Z,99.90
2019-02-24T07:21:40.184Z,99.90
2019-02-24T07:26:25.976Z,99.90
2019-02-24T07:31:11.813Z,99.90
2019-02-24T07:35:59.049Z,99.90
2019-02-24T07:40:44.941Z,99.90
2019-02-24T07:45:30.704Z,99.90
2019-02-24T07:50:16.967Z,99.90
2019-02-24T07:55:02.809Z,99.90
2019-02-24T07:59:48.584Z,99.90
2019-02-24T08:04:34.502Z,99.90
2019-02-24T08:09:20.760Z,99.90
2019-02-24T08:14:06.637Z,99.90
2019-02-24T08:18:52.642Z,99.90
2019-02-24T08:23:38.444Z,99.90
2019-02-24T08:28:25.191Z,99.90
2019-02-24T08:33:11.386Z,99.90
2019-02-24T08:37:57.144Z,99.90
2019-02-24T08:42:43.513Z,93.60
2019-02-24T08:47:29.500Z,92.30
2019-02-24T08:52:18.035Z,83.70
2019-02-24T08:57:04.391Z,82.80
2019-02-24T09:01:50.552Z,80.20
2019-02-24T09:06:37.331Z,76.90
2019-02-24T09:11:23.253Z,77.70
2019-02-24T09:16:09.159Z,81.50
2019-02-24T09:20:55.182Z,80.50
2019-02-24T09:25:41.327Z,74.70
2019-02-24T09:30:27.137Z,78.70
2019-02-24T09:35:13.258Z,78.70
2019-02-24T09:39:59.740Z,80.10
2019-02-24T09:44:45.673Z,79.20
2019-02-24T09:49:31.977Z,79.30
2019-02-24T09:54:18.011Z,80.50
2019-02-24T09:59:03.989Z,82.80
2019-02-24T10:03:49.750Z,79.00
2019-02-24T10:08:35.606Z,72.80
2019-02-24T10:13:21.519Z,64.30
2019-02-24T10:18:07.370Z,57.70
2019-02-24T10:22:53.230Z,54.70
2019-02-24T10:27:39.203Z,55.30
2019-02-24T10:32:25.152Z,55.40
2019-02-24T10:37:11.717Z,53.50
2019-02-24T10:41:57.709Z,50.10
2019-02-24T10:46:43.599Z,53.80
2019-02-24T10:51:29.571Z,58.00
2019-02-24T10:56:15.474Z,59.50
2019-02-24T11:01:01.458Z,55.40
2019-02-24T11:05:47.489Z,49.30
2019-02-24T11:10:33.377Z,47.90
2019-02-24T11:15:19.216Z,47.10
2019-02-24T11:20:06.243Z,50.30
2019-02-24T11:24:52.005Z,45.20
2019-02-24T11:29:37.874Z,44.60
2019-02-24T11:34:23.752Z,43.80
2019-02-24T11:39:09.976Z,46.00
2019-02-24T11:43:55.727Z,50.30
2019-02-24T11:48:41.643Z,50.60
2019-02-24T11:53:27.348Z,53.50
2019-02-24T11:58:13.501Z,51.70
2019-02-24T12:02:59.309Z,52.60
2019-02-24T12:07:45.184Z,51.30
2019-02-24T12:12:30.924Z,52.20
2019-02-24T12:17:18.554Z,53.10
2019-02-24T12:22:04.600Z,52.10
2019-02-24T12:26:50.457Z,53.00
2019-02-24T12:31:36.319Z,52.60
2019-02-24T12:36:22.351Z,52.30
2019-02-24T12:41:08.281Z,52.90
2019-02-24T12:45:54.135Z,52.00
2019-02-24T12:50:39.906Z,52.40
2019-02-24T12:55:25.875Z,52.70
2019-02-24T13:00:15.811Z,51.60
2019-02-24T13:05:01.554Z,45.00
2019-02-24T13:09:47.695Z,46.90
2019-02-24T13:14:33.486Z,48.80
2019-02-24T13:19:19.340Z,49.80
2019-02-24T13:24:05.638Z,51.90
2019-02-24T13:28:51.906Z,52.90
2019-02-24T13:33:37.638Z,50.50
2019-02-24T13:38:23.410Z,50.80
2019-02-24T13:43:09.455Z,48.30
2019-02-24T13:47:55.407Z,52.30
2019-02-24T13:52:41.353Z,53.10
2019-02-24T13:57:27.162Z,53.30
2019-02-24T14:02:13.106Z,53.60
2019-02-24T14:06:59.295Z,51.30
2019-02-24T14:11:45.681Z,50.80
2019-02-24T14:16:32.859Z,51.60
2019-02-24T14:21:19.654Z,52.80
2019-02-24T14:26:06.253Z,49.40
2019-02-24T14:30:52.392Z,50.70
2019-02-24T14:35:39.374Z,53.30
2019-02-24T14:40:25.792Z,55.60
2019-02-24T14:45:16.552Z,57.10
2019-02-24T14:50:03.054Z,57.40
2019-02-24T14:54:49.936Z,58.20
2019-02-24T14:59:36.718Z,60.20
2019-02-24T15:04:23.304Z,59.00
2019-02-24T15:09:10.262Z,60.20
2019-02-24T15:13:56.768Z,62.60
2019-02-24T15:18:43.147Z,64.60
2019-02-24T15:23:29.586Z,67.40
2019-02-24T15:28:16.252Z,68.10
2019-02-24T15:33:02.526Z,63.60
2019-02-24T15:37:49.016Z,50.80
2019-02-24T15:42:35.423Z,43.50
2019-02-24T15:47:21.496Z,39.10
2019-02-24T15:52:10.129Z,37.50
2019-02-24T15:56:55.500Z,37.30
2019-02-24T16:01:41.548Z,34.80
2019-02-24T16:06:27.827Z,34.10
2019-02-24T16:11:14.604Z,33.60
2019-02-24T16:16:00.693Z,34.40
2019-02-24T16:20:46.768Z,35.10
2019-02-24T16:25:33.046Z,39.20
2019-02-24T16:30:19.037Z,43.10
2019-02-24T16:35:04.771Z,48.80
2019-02-24T16:39:50.633Z,54.40
2019-02-24T16:44:36.676Z,61.70
2019-02-24T16:49:22.839Z,65.80
2019-02-24T16:54:08.867Z,69.70
2019-02-24T16:58:55.031Z,72.60
2019-02-24T17:03:41.086Z,78.50
2019-02-24T17:08:27.111Z,89.80
2019-02-24T17:13:13.359Z,92.50
2019-02-24T17:17:59.347Z,97.50
2019-02-24T17:22:45.585Z,99.90
2019-02-24T17:27:31.627Z,99.90
2019-02-24T17:32:17.740Z,99.90
2019-02-24T17:37:03.854Z,99.90
2019-02-24T17:41:50.229Z,99.90
2019-02-24T17:46:36.685Z,99.90
2019-02-24T17:51:22.870Z,99.90
2019-02-24T17:56:09.625Z,99.90
2019-02-24T18:01:03.903Z,99.90
2019-02-24T18:05:50.044Z,99.90
2019-02-24T18:10:36.005Z,99.90
2019-02-24T18:15:22.081Z,99.90
2019-02-24T18:20:09.494Z,99.90
2019-02-24T18:25:02.952Z,99.90
2019-02-24T18:29:42.987Z,99.90
2019-02-24T18:34:29.182Z,99.90
2019-02-24T18:39:17.760Z,99.90
2019-02-24T18:44:04.295Z,99.90
2019-02-24T18:48:50.276Z,99.90
2019-02-24T18:53:36.300Z,99.90
2019-02-24T18:58:22.317Z,99.90
2019-02-24T19:03:08.647Z,99.90
2019-02-24T19:07:54.551Z,99.90
2019-02-24T19:12:40.674Z,99.90
2019-02-24T19:17:26.603Z,99.90
2019-02-24T19:22:12.709Z,99.90
2019-02-24T19:26:58.925Z,99.90
2019-02-24T19:31:44.921Z,99.90
2019-02-24T19:36:31.079Z,99.90
2019-02-24T19:41:17.129Z,99.90
2019-02-24T19:46:03.357Z,99.90
2019-02-24T19:50:49.211Z,99.90
2019-02-24T19:55:35.083Z,99.90
2019-02-24T20:00:22.095Z,99.90
2019-02-24T20:05:08.387Z,99.90
2019-02-24T20:09:54.245Z,99.90
2019-02-24T20:14:40.149Z,99.90
2019-02-24T20:19:26.272Z,99.90
2019-02-24T20:24:12.041Z,99.90
2019-02-24T20:28:58.141Z,99.90
2019-02-24T20:33:44.079Z,99.90
2019-02-24T20:38:30.274Z,99.90
2019-02-24T20:43:16.204Z,99.90
2019-02-24T20:48:02.315Z,99.90
2019-02-24T20:52:48.272Z,99.90
2019-02-24T20:57:34.404Z,99.90
2019-02-24T21:02:20.284Z,99.90
2019-02-24T21:07:06.786Z,99.90
2019-02-24T21:11:52.823Z,99.90
2019-02-24T21:16:39.082Z,99.90
2019-02-24T21:21:25.065Z,99.90
2019-02-24T21:26:11.205Z,99.90
2019-02-24T21:30:56.955Z,99.90
2019-02-24T21:35:42.940Z,99.90
2019-02-24T21:40:29.459Z,99.90
2019-02-24T21:45:17.267Z,99.90
2019-02-24T21:50:03.214Z,99.90
2019-02-24T21:54:49.146Z,99.90
2019-02-24T21:59:37.175Z,99.90
2019-02-24T22:04:22.500Z,99.90
2019-02-24T22:09:11.916Z,99.90
2019-02-24T22:13:57.904Z,99.90
2019-02-24T22:18:43.922Z,99.90
2019-02-24T22:23:29.799Z,99.90
2019-02-24T22:28:34.620Z,99.90
2019-02-24T22:33:21.441Z,99.90
2019-02-24T22:38:07.643Z,99.90
2019-02-24T22:42:53.848Z,99.90
2019-02-24T22:47:40.030Z,99.90
2019-02-24T22:52:25.783Z,99.90
2019-02-24T22:57:11.673Z,99.90
2019-02-24T23:01:59.132Z,99.90
2019-02-24T23:06:44.865Z,99.90
2019-02-24T23:11:30.810Z,99.90
2019-02-24T23:16:16.876Z,99.90
2019-02-24T23:21:02.791Z,99.90
2019-02-24T23:25:48.782Z,99.90
2019-02-24T23:30:34.573Z,99.90
2019-02-24T23:35:20.402Z,99.90
2019-02-24T23:40:06.382Z,99.90
2019-02-24T23:44:52.181Z,99.90
2019-02-24T23:49:37.914Z,99.90
2019-02-24T23:54:23.799Z,99.90
2019-02-24T23:59:09.899Z,99.90
